sensor_id;sensor_type;location;lat;lon;timestamp;pressure;altitude;pressure_sealevel;temperature;humidity
38620;BME280;24376;51.986;4.662;2022-07-06T00:01:15;101712.84;;;11.77;100.00
38620;BME280;24376;51.986;4.662;2022-07-06T00:03:41;101707.78;;;11.81;100.00
38620;BME280;24376;51.986;4.662;2022-07-06T00:06:06;101691.19;;;11.82;100.00
38620;BME280;24376;51.986;4.662;2022-07-06T00:08:31;101687.97;;;11.89;100.00
38620;BME280;24376;51.986;4.662;2022-07-06T00:10:56;101695.16;;;11.95;100.00
38620;BME280;24376;51.986;4.662;2022-07-06T00:13:21;101695.19;;;11.96;100.00
38620;BME280;24376;51.986;4.662;2022-07-06T00:15:47;101714.81;;;11.82;100.00
38620;BME280;24376;51.986;4.662;2022-07-06T00:18:12;101722.22;;;11.70;100.00
38620;BME280;24376;51.986;4.662;2022-07-06T00:20:37;101703.75;;;11.67;100.00
38620;BME280;24376;51.986;4.662;2022-07-06T00:23:02;101698.81;;;11.76;100.00
38620;BME280;24376;51.986;4.662;2022-07-06T00:25:27;101656.63;;;11.70;100.00
38620;BME280;24376;51.986;4.662;2022-07-06T00:27:52;101659.22;;;11.68;100.00
38620;BME280;24376;51.986;4.662;2022-07-06T00:30:18;101654.28;;;11.78;100.00
38620;BME280;24376;51.986;4.662;2022-07-06T00:32:43;101649.56;;;11.93;100.00
38620;BME280;24376;51.986;4.662;2022-07-06T00:35:08;101627.88;;;11.98;100.00
38620;BME280;24376;51.986;4.662;2022-07-06T00:37:33;101605.03;;;11.94;100.00
38620;BME280;24376;51.986;4.662;2022-07-06T00:39:59;101590.53;;;11.80;100.00
38620;BME280;24376;51.986;4.662;2022-07-06T00:42:24;101576.34;;;11.75;100.00
38620;BME280;24376;51.986;4.662;2022-07-06T00:44:49;101540.66;;;11.80;100.00
38620;BME280;24376;51.986;4.662;2022-07-06T00:47:14;101537.16;;;11.80;100.00
38620;BME280;24376;51.986;4.662;2022-07-06T00:49:39;101532.94;;;11.83;100.00
38620;BME280;24376;51.986;4.662;2022-07-06T00:52:23;101511.09;;;11.84;100.00
38620;BME280;24376;51.986;4.662;2022-07-06T00:54:49;101503.72;;;11.74;100.00
38620;BME280;24376;51.986;4.662;2022-07-06T00:57:15;101492.31;;;11.72;100.00
38620;BME280;24376;51.986;4.662;2022-07-06T00:59:40;101477.13;;;11.62;100.00
38620;BME280;24376;51.986;4.662;2022-07-06T01:02:05;101464.56;;;11.53;100.00
38620;BME280;24376;51.986;4.662;2022-07-06T01:04:30;101447.06;;;11.52;100.00
38620;BME280;24376;51.986;4.662;2022-07-06T01:06:56;101419.03;;;11.50;100.00
38620;BME280;24376;51.986;4.662;2022-07-06T01:09:22;101387.75;;;11.56;100.00
38620;BME280;24376;51.986;4.662;2022-07-06T01:11:47;101367.28;;;11.44;100.00
38620;BME280;24376;51.986;4.662;2022-07-06T01:14:12;101351.19;;;11.33;100.00
38620;BME280;24376;51.986;4.662;2022-07-06T01:16:38;101321.00;;;11.46;100.00
38620;BME280;24376;51.986;4.662;2022-07-06T01:19:04;101299.28;;;11.50;100.00
38620;BME280;24376;51.986;4.662;2022-07-06T01:21:29;101265.06;;;11.47;100.00
38620;BME280;24376;51.986;4.662;2022-07-06T01:23:54;101249.94;;;11.37;100.00
38620;BME280;24376;51.986;4.662;2022-07-06T01:26:20;101232.47;;;11.37;100.00
38620;BME280;24376;51.986;4.662;2022-07-06T01:28:46;101216.56;;;11.31;100.00
38620;BME280;24376;51.986;4.662;2022-07-06T01:31:29;101204.22;;;11.27;100.00
38620;BME280;24376;51.986;4.662;2022-07-06T01:33:55;101183.13;;;11.24;100.00
38620;BME280;24376;51.986;4.662;2022-07-06T01:36:21;101179.59;;;11.22;100.00
38620;BME280;24376;51.986;4.662;2022-07-06T01:38:50;101165.75;;;11.26;100.00
38620;BME280;24376;51.986;4.662;2022-07-06T01:41:15;101139.25;;;11.17;100.00
38620;BME280;24376;51.986;4.662;2022-07-06T01:43:41;101134.72;;;11.11;100.00
38620;BME280;24376;51.986;4.662;2022-07-06T01:46:06;101112.63;;;11.02;100.00
38620;BME280;24376;51.986;4.662;2022-07-06T01:48:32;101112.56;;;11.00;100.00
38620;BME280;24376;51.986;4.662;2022-07-06T01:50:57;101110.94;;;11.04;100.00
38620;BME280;24376;51.986;4.662;2022-07-06T01:53:22;101106.56;;;11.04;100.00
38620;BME280;24376;51.986;4.662;2022-07-06T01:55:47;101091.84;;;11.08;100.00
38620;BME280;24376;51.986;4.662;2022-07-06T01:58:12;101069.06;;;11.07;100.00
38620;BME280;24376;51.986;4.662;2022-07-06T02:00:37;101055.47;;;11.20;100.00
38620;BME280;24376;51.986;4.662;2022-07-06T02:03:03;101005.75;;;11.23;100.00
38620;BME280;24376;51.986;4.662;2022-07-06T02:05:28;101013.59;;;11.23;100.00
38620;BME280;24376;51.986;4.662;2022-07-06T02:07:53;101014.63;;;11.28;100.00
38620;BME280;24376;51.986;4.662;2022-07-06T02:10:18;100978.91;;;11.33;100.00
38620;BME280;24376;51.986;4.662;2022-07-06T02:12:44;100983.34;;;11.36;100.00
38620;BME280;24376;51.986;4.662;2022-07-06T02:15:09;101008.59;;;11.32;100.00
38620;BME280;24376;51.986;4.662;2022-07-06T02:17:34;101015.22;;;11.18;100.00
38620;BME280;24376;51.986;4.662;2022-07-06T02:19:59;101034.09;;;11.05;100.00
38620;BME280;24376;51.986;4.662;2022-07-06T02:22:25;101031.16;;;10.94;100.00
38620;BME280;24376;51.986;4.662;2022-07-06T02:24:50;101052.84;;;10.88;100.00
38620;BME280;24376;51.986;4.662;2022-07-06T02:27:15;101039.50;;;10.79;100.00
38620;BME280;24376;51.986;4.662;2022-07-06T02:29:40;101035.22;;;10.83;100.00
38620;BME280;24376;51.986;4.662;2022-07-06T02:32:05;101029.03;;;10.79;100.00
38620;BME280;24376;51.986;4.662;2022-07-06T02:34:31;101025.72;;;10.86;100.00
38620;BME280;24376;51.986;4.662;2022-07-06T02:36:56;101016.16;;;10.88;100.00
38620;BME280;24376;51.986;4.662;2022-07-06T02:39:21;101028.06;;;10.77;100.00
38620;BME280;24376;51.986;4.662;2022-07-06T02:41:46;101028.06;;;10.77;100.00
38620;BME280;24376;51.986;4.662;2022-07-06T02:44:11;100966.91;;;10.75;100.00
38620;BME280;24376;51.986;4.662;2022-07-06T02:46:36;101001.53;;;10.65;100.00
38620;BME280;24376;51.986;4.662;2022-07-06T02:49:02;101023.19;;;10.59;100.00
38620;BME280;24376;51.986;4.662;2022-07-06T02:51:27;101040.66;;;10.59;100.00
38620;BME280;24376;51.986;4.662;2022-07-06T02:53:52;101037.94;;;10.56;100.00
38620;BME280;24376;51.986;4.662;2022-07-06T02:56:17;101036.16;;;10.55;100.00
38620;BME280;24376;51.986;4.662;2022-07-06T02:58:42;101046.72;;;10.58;100.00
38620;BME280;24376;51.986;4.662;2022-07-06T03:01:07;101023.06;;;10.55;100.00
38620;BME280;24376;51.986;4.662;2022-07-06T03:03:33;101030.13;;;10.57;100.00
38620;BME280;24376;51.986;4.662;2022-07-06T03:05:58;101040.50;;;10.54;100.00
38620;BME280;24376;51.986;4.662;2022-07-06T03:08:23;101042.34;;;10.57;100.00
38620;BME280;24376;51.986;4.662;2022-07-06T03:10:48;101049.38;;;10.59;100.00
38620;BME280;24376;51.986;4.662;2022-07-06T03:13:13;101042.53;;;10.63;100.00
38620;BME280;24376;51.986;4.662;2022-07-06T03:15:39;101051.84;;;10.55;100.00
38620;BME280;24376;51.986;4.662;2022-07-06T03:18:04;101030.09;;;10.56;100.00
38620;BME280;24376;51.986;4.662;2022-07-06T03:20:29;101052.84;;;10.58;100.00
38620;BME280;24376;51.986;4.662;2022-07-06T03:22:54;101043.53;;;10.68;100.00
38620;BME280;24376;51.986;4.662;2022-07-06T03:25:19;101031.72;;;10.82;100.00
38620;BME280;24376;51.986;4.662;2022-07-06T03:27:45;101028.50;;;10.92;100.00
38620;BME280;24376;51.986;4.662;2022-07-06T03:30:10;101036.50;;;10.97;100.00
38620;BME280;24376;51.986;4.662;2022-07-06T03:32:35;101035.53;;;10.93;100.00
38620;BME280;24376;51.986;4.662;2022-07-06T03:35:00;101047.84;;;10.96;100.00
38620;BME280;24376;51.986;4.662;2022-07-06T03:37:26;101051.34;;;10.97;100.00
38620;BME280;24376;51.986;4.662;2022-07-06T03:39:51;101052.25;;;10.99;100.00
38620;BME280;24376;51.986;4.662;2022-07-06T03:42:16;101054.16;;;11.04;100.00
38620;BME280;24376;51.986;4.662;2022-07-06T03:44:41;101050.97;;;11.14;100.00
38620;BME280;24376;51.986;4.662;2022-07-06T03:47:06;101049.34;;;11.19;100.00
38620;BME280;24376;51.986;4.662;2022-07-06T03:49:31;101052.91;;;11.23;100.00
38620;BME280;24376;51.986;4.662;2022-07-06T03:51:57;101057.56;;;11.33;100.00
38620;BME280;24376;51.986;4.662;2022-07-06T03:54:22;101059.50;;;11.40;100.00
38620;BME280;24376;51.986;4.662;2022-07-06T03:56:47;101077.16;;;11.48;100.00
38620;BME280;24376;51.986;4.662;2022-07-06T03:59:12;101098.28;;;11.54;100.00
38620;BME280;24376;51.986;4.662;2022-07-06T04:01:39;101103.78;;;11.63;100.00
38620;BME280;24376;51.986;4.662;2022-07-06T04:04:04;101101.44;;;11.73;100.00
38620;BME280;24376;51.986;4.662;2022-07-06T04:06:29;101099.13;;;11.84;100.00
38620;BME280;24376;51.986;4.662;2022-07-06T04:08:55;101102.91;;;11.95;100.00
38620;BME280;24376;51.986;4.662;2022-07-06T04:11:20;101093.59;;;12.08;100.00
38620;BME280;24376;51.986;4.662;2022-07-06T04:13:45;101097.34;;;12.18;100.00
38620;BME280;24376;51.986;4.662;2022-07-06T04:16:10;101085.28;;;12.28;100.00
38620;BME280;24376;51.986;4.662;2022-07-06T04:18:36;101096.06;;;12.40;100.00
38620;BME280;24376;51.986;4.662;2022-07-06T04:21:01;101118.19;;;12.49;100.00
38620;BME280;24376;51.986;4.662;2022-07-06T04:23:27;101120.97;;;12.57;100.00
38620;BME280;24376;51.986;4.662;2022-07-06T04:25:52;101129.88;;;12.64;100.00
38620;BME280;24376;51.986;4.662;2022-07-06T04:28:18;101131.09;;;12.79;100.00
38620;BME280;24376;51.986;4.662;2022-07-06T04:30:43;101141.00;;;12.91;100.00
38620;BME280;24376;51.986;4.662;2022-07-06T04:33:08;101128.91;;;12.99;100.00
38620;BME280;24376;51.986;4.662;2022-07-06T04:35:33;101140.69;;;13.17;100.00
38620;BME280;24376;51.986;4.662;2022-07-06T04:37:59;101134.81;;;13.30;100.00
38620;BME280;24376;51.986;4.662;2022-07-06T04:40:24;101142.00;;;13.39;100.00
38620;BME280;24376;51.986;4.662;2022-07-06T04:42:49;101141.31;;;13.47;100.00
38620;BME280;24376;51.986;4.662;2022-07-06T04:45:14;101146.78;;;13.60;100.00
38620;BME280;24376;51.986;4.662;2022-07-06T04:47:39;101145.06;;;13.62;100.00
38620;BME280;24376;51.986;4.662;2022-07-06T04:50:05;101153.06;;;13.68;100.00
38620;BME280;24376;51.986;4.662;2022-07-06T04:52:30;101177.72;;;13.73;100.00
38620;BME280;24376;51.986;4.662;2022-07-06T04:54:55;101169.03;;;13.75;100.00
38620;BME280;24376;51.986;4.662;2022-07-06T04:57:21;101157.00;;;13.91;100.00
38620;BME280;24376;51.986;4.662;2022-07-06T04:59:46;101158.75;;;13.91;100.00
38620;BME280;24376;51.986;4.662;2022-07-06T05:02:11;101168.56;;;13.99;100.00
38620;BME280;24376;51.986;4.662;2022-07-06T05:04:36;101158.03;;;13.99;100.00
38620;BME280;24376;51.986;4.662;2022-07-06T05:07:02;101163.28;;;13.98;100.00
38620;BME280;24376;51.986;4.662;2022-07-06T05:09:27;101167.81;;;14.06;100.00
38620;BME280;24376;51.986;4.662;2022-07-06T05:11:52;101165.25;;;14.09;100.00
38620;BME280;24376;51.986;4.662;2022-07-06T05:14:17;101154.75;;;14.13;100.00
38620;BME280;24376;51.986;4.662;2022-07-06T05:16:43;101161.78;;;14.14;100.00
38620;BME280;24376;51.986;4.662;2022-07-06T05:19:08;101162.63;;;14.11;100.00
38620;BME280;24376;51.986;4.662;2022-07-06T05:21:33;101160.81;;;14.08;100.00
38620;BME280;24376;51.986;4.662;2022-07-06T05:23:58;101162.53;;;14.05;100.00
38620;BME280;24376;51.986;4.662;2022-07-06T05:26:23;101169.56;;;14.07;100.00
38620;BME280;24376;51.986;4.662;2022-07-06T05:28:49;101172.06;;;13.98;100.00
38620;BME280;24376;51.986;4.662;2022-07-06T05:31:14;101175.50;;;13.94;100.00
38620;BME280;24376;51.986;4.662;2022-07-06T05:33:39;101173.72;;;13.93;100.00
38620;BME280;24376;51.986;4.662;2022-07-06T05:36:04;101172.00;;;13.95;100.00
38620;BME280;24376;51.986;4.662;2022-07-06T05:38:29;101173.88;;;14.02;100.00
38620;BME280;24376;51.986;4.662;2022-07-06T05:40:55;101167.91;;;14.13;100.00
38620;BME280;24376;51.986;4.662;2022-07-06T05:43:20;101160.25;;;14.26;100.00
38620;BME280;24376;51.986;4.662;2022-07-06T05:45:45;101152.56;;;14.40;100.00
38620;BME280;24376;51.986;4.662;2022-07-06T05:48:10;101147.50;;;14.52;100.00
38620;BME280;24376;51.986;4.662;2022-07-06T05:50:54;101141.53;;;14.66;100.00
38620;BME280;24376;51.986;4.662;2022-07-06T05:53:19;101136.34;;;14.72;100.00
38620;BME280;24376;51.986;4.662;2022-07-06T05:55:45;101120.75;;;14.87;100.00
38620;BME280;24376;51.986;4.662;2022-07-06T05:58:10;101108.59;;;14.98;100.00
38620;BME280;24376;51.986;4.662;2022-07-06T06:00:35;101087.63;;;15.10;100.00
38620;BME280;24376;51.986;4.662;2022-07-06T06:03:00;101076.31;;;15.19;100.00
38620;BME280;24376;51.986;4.662;2022-07-06T06:05:26;101079.09;;;15.33;100.00
38620;BME280;24376;51.986;4.662;2022-07-06T06:07:51;101059.88;;;15.46;100.00
38620;BME280;24376;51.986;4.662;2022-07-06T06:10:18;101043.25;;;15.56;100.00
38620;BME280;24376;51.986;4.662;2022-07-06T06:12:43;101016.94;;;15.64;100.00
38620;BME280;24376;51.986;4.662;2022-07-06T06:15:09;100972.19;;;15.78;100.00
38620;BME280;24376;51.986;4.662;2022-07-06T06:17:38;100950.22;;;15.83;100.00
38620;BME280;24376;51.986;4.662;2022-07-06T06:20:03;100941.44;;;15.86;100.00
38620;BME280;24376;51.986;4.662;2022-07-06T06:22:29;100923.00;;;15.98;100.00
38620;BME280;24376;51.986;4.662;2022-07-06T06:24:54;100909.88;;;16.07;100.00
38620;BME280;24376;51.986;4.662;2022-07-06T06:27:20;100899.28;;;16.09;100.00
38620;BME280;24376;51.986;4.662;2022-07-06T06:29:45;100893.19;;;16.27;100.00
38620;BME280;24376;51.986;4.662;2022-07-06T06:32:10;100899.31;;;16.15;100.00
38620;BME280;24376;51.986;4.662;2022-07-06T06:34:36;100897.59;;;16.20;100.00
38620;BME280;24376;51.986;4.662;2022-07-06T06:37:01;100884.41;;;16.31;100.00
38620;BME280;24376;51.986;4.662;2022-07-06T06:39:27;100886.22;;;16.41;100.00
38620;BME280;24376;51.986;4.662;2022-07-06T06:41:52;100880.97;;;16.53;100.00
38620;BME280;24376;51.986;4.662;2022-07-06T06:44:17;100874.81;;;16.60;100.00
38620;BME280;24376;51.986;4.662;2022-07-06T06:46:42;100872.16;;;16.56;100.00
38620;BME280;24376;51.986;4.662;2022-07-06T06:49:08;100875.69;;;16.62;100.00
38620;BME280;24376;51.986;4.662;2022-07-06T06:51:33;100886.28;;;16.67;100.00
38620;BME280;24376;51.986;4.662;2022-07-06T06:53:58;100884.50;;;16.64;100.00
38620;BME280;24376;51.986;4.662;2022-07-06T06:56:23;100878.34;;;16.70;100.00
38620;BME280;24376;51.986;4.662;2022-07-06T06:58:49;100873.09;;;16.79;100.00
38620;BME280;24376;51.986;4.662;2022-07-06T07:01:14;101071.47;;;16.91;100.00
38620;BME280;24376;51.986;4.662;2022-07-06T07:03:39;101121.78;;;17.00;100.00
38620;BME280;24376;51.986;4.662;2022-07-06T07:06:04;101287.53;;;16.94;100.00
38620;BME280;24376;51.986;4.662;2022-07-06T07:08:29;102452.56;;;16.96;100.00
38620;BME280;24376;51.986;4.662;2022-07-06T07:10:55;103141.94;;;17.07;100.00
38620;BME280;24376;51.986;4.662;2022-07-06T07:13:20;103350.03;;;17.03;100.00
38620;BME280;24376;51.986;4.662;2022-07-06T07:15:45;103526.81;;;17.11;100.00
38620;BME280;24376;51.986;4.662;2022-07-06T07:18:10;103677.28;;;17.21;100.00
38620;BME280;24376;51.986;4.662;2022-07-06T07:20:36;104268.00;;;17.40;100.00
38620;BME280;24376;51.986;4.662;2022-07-06T07:23:01;104763.41;;;17.55;100.00
38620;BME280;24376;51.986;4.662;2022-07-06T07:25:27;104837.16;;;17.62;100.00
38620;BME280;24376;51.986;4.662;2022-07-06T07:27:52;103417.16;;;17.50;100.00
38620;BME280;24376;51.986;4.662;2022-07-06T07:30:17;102771.50;;;17.42;100.00
38620;BME280;24376;51.986;4.662;2022-07-06T07:32:43;102963.59;;;17.59;100.00
38620;BME280;24376;51.986;4.662;2022-07-06T07:35:08;103086.84;;;17.73;100.00
38620;BME280;24376;51.986;4.662;2022-07-06T07:37:34;103091.44;;;17.79;100.00
38620;BME280;24376;51.986;4.662;2022-07-06T07:39:59;103198.78;;;17.92;100.00
38620;BME280;24376;51.986;4.662;2022-07-06T07:42:24;102992.91;;;17.64;100.00
38620;BME280;24376;51.986;4.662;2022-07-06T07:44:49;103201.31;;;17.89;100.00
38620;BME280;24376;51.986;4.662;2022-07-06T07:47:15;103460.53;;;18.21;100.00
38620;BME280;24376;51.986;4.662;2022-07-06T07:49:40;103287.63;;;18.06;100.00
38620;BME280;24376;51.986;4.662;2022-07-06T07:52:05;103523.88;;;18.38;100.00
38620;BME280;24376;51.986;4.662;2022-07-06T07:54:30;103535.63;;;18.44;100.00
38620;BME280;24376;51.986;4.662;2022-07-06T07:56:56;103814.63;;;18.76;100.00
38620;BME280;24376;51.986;4.662;2022-07-06T07:59:21;103427.56;;;18.39;100.00
38620;BME280;24376;51.986;4.662;2022-07-06T08:01:47;103523.50;;;18.51;100.00
38620;BME280;24376;51.986;4.662;2022-07-06T08:04:12;103314.97;;;18.30;100.00
38620;BME280;24376;51.986;4.662;2022-07-06T08:06:37;103402.91;;;18.43;100.00
38620;BME280;24376;51.986;4.662;2022-07-06T08:09:02;103825.06;;;18.94;100.00
38620;BME280;24376;51.986;4.662;2022-07-06T08:11:29;103880.38;;;19.04;100.00
38620;BME280;24376;51.986;4.662;2022-07-06T08:13:54;103748.78;;;18.90;100.00
38620;BME280;24376;51.986;4.662;2022-07-06T08:16:20;103992.53;;;19.19;100.00
38620;BME280;24376;51.986;4.662;2022-07-06T08:18:45;103902.75;;;19.10;100.00
38620;BME280;24376;51.986;4.662;2022-07-06T08:21:10;104051.34;;;19.28;100.00
38620;BME280;24376;51.986;4.662;2022-07-06T08:23:36;104241.00;;;19.51;100.00
38620;BME280;24376;51.986;4.662;2022-07-06T08:26:01;103847.88;;;19.11;100.00
38620;BME280;24376;51.986;4.662;2022-07-06T08:28:27;104129.97;;;19.44;100.00
38620;BME280;24376;51.986;4.662;2022-07-06T08:30:52;104650.34;;;20.05;100.00
38620;BME280;24376;51.986;4.662;2022-07-06T08:33:19;104960.97;;;20.43;100.00
38620;BME280;24376;51.986;4.662;2022-07-06T08:35:44;105205.00;;;20.75;100.00
38620;BME280;24376;51.986;4.662;2022-07-06T08:38:10;105039.94;;;20.59;100.00
38620;BME280;24376;51.986;4.662;2022-07-06T08:40:35;104272.19;;;19.75;100.00
38620;BME280;24376;51.986;4.662;2022-07-06T08:43:03;104427.25;;;19.93;100.00
38620;BME280;24376;51.986;4.662;2022-07-06T08:45:28;104634.97;;;20.17;100.00
38620;BME280;24376;51.986;4.662;2022-07-06T08:47:54;104439.84;;;19.97;100.00
38620;BME280;24376;51.986;4.662;2022-07-06T08:50:20;104539.66;;;20.08;100.00
38620;BME280;24376;51.986;4.662;2022-07-06T08:52:46;104313.38;;;19.84;100.00
38620;BME280;24376;51.986;4.662;2022-07-06T08:55:12;104610.19;;;20.18;100.00
38620;BME280;24376;51.986;4.662;2022-07-06T08:57:37;104891.41;;;20.53;100.00
38620;BME280;24376;51.986;4.662;2022-07-06T09:00:05;104769.22;;;20.41;100.00
38620;BME280;24376;51.986;4.662;2022-07-06T09:02:30;104571.25;;;20.20;100.00
38620;BME280;24376;51.986;4.662;2022-07-06T09:04:55;104768.31;;;20.41;100.00
38620;BME280;24376;51.986;4.662;2022-07-06T09:07:24;104712.19;;;20.36;100.00
38620;BME280;24376;51.986;4.662;2022-07-06T09:09:51;104302.16;;;19.91;100.00
38620;BME280;24376;51.986;4.662;2022-07-06T09:12:17;104428.69;;;20.06;100.00
38620;BME280;24376;51.986;4.662;2022-07-06T09:14:42;104730.09;;;20.40;100.00
38620;BME280;24376;51.986;4.662;2022-07-06T09:17:08;104806.94;;;20.51;100.00
38620;BME280;24376;51.986;4.662;2022-07-06T09:19:33;105009.63;;;20.75;100.00
38620;BME280;24376;51.986;4.662;2022-07-06T09:21:59;105071.31;;;20.82;100.00
38620;BME280;24376;51.986;4.662;2022-07-06T09:24:24;105523.63;;;21.34;100.00
38620;BME280;24376;51.986;4.662;2022-07-06T09:26:51;105512.25;;;21.36;100.00
38620;BME280;24376;51.986;4.662;2022-07-06T09:29:24;105799.59;;;21.70;100.00
38620;BME280;24376;51.986;4.662;2022-07-06T09:32:22;105696.00;;;21.63;100.00
38620;BME280;24376;51.986;4.662;2022-07-06T09:34:41;105877.78;;;21.84;100.00
38620;BME280;24376;51.986;4.662;2022-07-06T09:37:07;105653.34;;;21.63;100.00
38620;BME280;24376;51.986;4.662;2022-07-06T09:39:32;105007.69;;;20.88;100.00
38620;BME280;24376;51.986;4.662;2022-07-06T09:41:58;104639.09;;;20.48;100.00
38620;BME280;24376;51.986;4.662;2022-07-06T09:44:25;105094.31;;;20.98;100.00
38620;BME280;24376;51.986;4.662;2022-07-06T09:46:50;104925.59;;;20.81;100.00
38620;BME280;24376;51.986;4.662;2022-07-06T09:49:16;105290.91;;;21.20;100.00
38620;BME280;24376;51.986;4.662;2022-07-06T09:51:41;105045.28;;;20.94;100.00
38620;BME280;24376;51.986;4.662;2022-07-06T09:54:07;105151.66;;;21.08;100.00
38620;BME280;24376;51.986;4.662;2022-07-06T09:56:40;105169.53;;;21.10;100.00
38620;BME280;24376;51.986;4.662;2022-07-06T09:59:09;105241.09;;;21.19;100.00
38620;BME280;24376;51.986;4.662;2022-07-06T10:01:35;105450.41;;;21.43;100.00
38620;BME280;24376;51.986;4.662;2022-07-06T10:04:00;105342.22;;;21.32;100.00
38620;BME280;24376;51.986;4.662;2022-07-06T10:06:26;105327.16;;;21.33;100.00
38620;BME280;24376;51.986;4.662;2022-07-06T10:08:51;105652.84;;;21.70;100.00
38620;BME280;24376;51.986;4.662;2022-07-06T10:11:18;105480.25;;;21.52;100.00
38620;BME280;24376;51.986;4.662;2022-07-06T10:13:44;105212.00;;;21.23;100.00
38620;BME280;24376;51.986;4.662;2022-07-06T10:16:11;105777.34;;;21.86;100.00
38620;BME280;24376;51.986;4.662;2022-07-06T10:18:36;105953.06;;;22.08;100.00
38620;BME280;24376;51.986;4.662;2022-07-06T10:21:01;105508.16;;;21.59;100.00
38620;BME280;24376;51.986;4.662;2022-07-06T10:23:27;105668.34;;;21.77;100.00
38620;BME280;24376;51.986;4.662;2022-07-06T10:25:52;105298.97;;;21.38;100.00
38620;BME280;24376;51.986;4.662;2022-07-06T10:28:18;104784.34;;;20.80;100.00
38620;BME280;24376;51.986;4.662;2022-07-06T10:30:44;105101.38;;;21.15;100.00
38620;BME280;24376;51.986;4.662;2022-07-06T10:33:10;105351.72;;;21.43;100.00
38620;BME280;24376;51.986;4.662;2022-07-06T10:35:38;105503.94;;;21.63;100.00
38620;BME280;24376;51.986;4.662;2022-07-06T10:38:07;105704.50;;;21.87;100.00
38620;BME280;24376;51.986;4.662;2022-07-06T10:40:34;104951.59;;;21.05;100.00
38620;BME280;24376;51.986;4.662;2022-07-06T10:43:18;104677.53;;;20.73;100.00
38620;BME280;24376;51.986;4.662;2022-07-06T10:50:40;104992.66;;;21.08;100.00
38620;BME280;24376;51.986;4.662;2022-07-06T10:53:25;105105.28;;;21.22;100.00
38620;BME280;24376;51.986;4.662;2022-07-06T10:55:51;105235.75;;;21.35;100.00
38620;BME280;24376;51.986;4.662;2022-07-06T11:01:01;105366.41;;;21.51;100.00
38620;BME280;24376;51.986;4.662;2022-07-06T11:03:43;105574.03;;;21.76;100.00
38620;BME280;24376;51.986;4.662;2022-07-06T11:11:12;105868.00;;;22.14;100.00
38620;BME280;24376;51.986;4.662;2022-07-06T11:16:24;105418.69;;;21.66;100.00
38620;BME280;24376;51.986;4.662;2022-07-06T11:19:01;105277.38;;;21.49;100.00
38620;BME280;24376;51.986;4.662;2022-07-06T11:24:05;105640.66;;;21.91;100.00
38620;BME280;24376;51.986;4.662;2022-07-06T11:26:31;106107.53;;;22.44;100.00
38620;BME280;24376;51.986;4.662;2022-07-06T11:28:57;106332.69;;;22.70;100.00
38620;BME280;24376;51.986;4.662;2022-07-06T11:31:23;106520.41;;;22.92;100.00
38620;BME280;24376;51.986;4.662;2022-07-06T11:33:48;106159.75;;;22.54;100.00
38620;BME280;24376;51.986;4.662;2022-07-06T11:36:14;105882.91;;;22.25;100.00
38620;BME280;24376;51.986;4.662;2022-07-06T11:38:40;106158.94;;;22.55;100.00
38620;BME280;24376;51.986;4.662;2022-07-06T11:41:05;106269.28;;;22.67;100.00
38620;BME280;24376;51.986;4.662;2022-07-06T11:43:30;106052.34;;;22.45;100.00
38620;BME280;24376;51.986;4.662;2022-07-06T11:45:55;105749.53;;;22.12;100.00
38620;BME280;24376;51.986;4.662;2022-07-06T11:48:21;105701.16;;;22.07;100.00
38620;BME280;24376;51.986;4.662;2022-07-06T11:51:01;106088.28;;;22.50;100.00
38620;BME280;24376;51.986;4.662;2022-07-06T11:53:27;106396.88;;;22.84;100.00
38620;BME280;24376;51.986;4.662;2022-07-06T11:55:53;106208.44;;;22.63;100.00
38620;BME280;24376;51.986;4.662;2022-07-06T11:58:22;106431.03;;;22.89;100.00
38620;BME280;24376;51.986;4.662;2022-07-06T12:01:06;106859.44;;;23.36;100.00
38620;BME280;24376;51.986;4.662;2022-07-06T12:03:32;106140.50;;;22.60;100.00
38620;BME280;24376;51.986;4.662;2022-07-06T12:05:58;106115.38;;;22.56;100.00
38620;BME280;24376;51.986;4.662;2022-07-06T12:08:23;106697.91;;;23.21;100.00
38620;BME280;24376;51.986;4.662;2022-07-06T12:10:48;106816.53;;;23.34;100.00
38620;BME280;24376;51.986;4.662;2022-07-06T12:13:14;106723.31;;;23.27;100.00
38620;BME280;24376;51.986;4.662;2022-07-06T12:15:39;106997.34;;;23.56;100.00
38620;BME280;24376;51.986;4.662;2022-07-06T12:18:04;107285.22;;;23.87;100.00
38620;BME280;24376;51.986;4.662;2022-07-06T12:20:29;108278.66;;;24.97;100.00
38620;BME280;24376;51.986;4.662;2022-07-06T12:23:01;107428.44;;;24.04;100.00
38620;BME280;24376;51.986;4.662;2022-07-06T12:25:33;107765.50;;;24.42;100.00
38620;BME280;24376;51.986;4.662;2022-07-06T12:27:59;108130.88;;;24.83;100.00
38620;BME280;24376;51.986;4.662;2022-07-06T12:30:24;107133.69;;;23.78;100.00
38620;BME280;24376;51.986;4.662;2022-07-06T12:35:33;107747.88;;;24.46;100.00
38620;BME280;24376;51.986;4.662;2022-07-06T12:37:58;108302.81;;;25.07;100.00
38620;BME280;24376;51.986;4.662;2022-07-06T12:40:25;108667.22;;;25.50;100.00
38620;BME280;24376;51.986;4.662;2022-07-06T12:42:51;107880.84;;;24.65;100.00
38620;BME280;24376;51.986;4.662;2022-07-06T12:45:16;107022.41;;;23.70;100.00
38620;BME280;24376;51.986;4.662;2022-07-06T12:47:48;107221.53;;;23.95;100.00
38620;BME280;24376;51.986;4.662;2022-07-06T12:50:21;106882.31;;;23.57;100.00
38620;BME280;24376;51.986;4.662;2022-07-06T12:52:54;107615.13;;;24.39;100.00
38620;BME280;24376;51.986;4.662;2022-07-06T12:55:24;106847.44;;;23.56;100.00